sensor_id;sensor_type;location;lat;lon;timestamp;pressure;altitude;pressure_sealevel;temperature;humidity
57232;BME280;43488;46.934;8.276;2023-06-04T00:00:22;96378.88;;;15.81;82.17
57232;BME280;43488;46.934;8.276;2023-06-04T00:02:49;96376.13;;;15.59;83.20
57232;BME280;43488;46.934;8.276;2023-06-04T00:05:16;96378.47;;;15.56;83.38
57232;BME280;43488;46.934;8.276;2023-06-04T00:07:44;96372.84;;;15.69;82.39
57232;BME280;43488;46.934;8.276;2023-06-04T00:10:11;96374.47;;;15.70;81.62
57232;BME280;43488;46.934;8.276;2023-06-04T00:12:40;96374.47;;;15.70;81.71
57232;BME280;43488;46.934;8.276;2023-06-04T00:15:08;96367.31;;;15.71;82.07
57232;BME280;43488;46.934;8.276;2023-06-04T00:17:35;96373.19;;;15.73;82.20
57232;BME280;43488;46.934;8.276;2023-06-04T00:20:03;96380.91;;;15.74;82.44
57232;BME280;43488;46.934;8.276;2023-06-04T00:22:30;96372.94;;;15.74;82.06
57232;BME280;43488;46.934;8.276;2023-06-04T00:24:58;96375.44;;;15.64;81.33
57232;BME280;43488;46.934;8.276;2023-06-04T00:27:26;96374.78;;;15.57;81.02
57232;BME280;43488;46.934;8.276;2023-06-04T00:29:54;96375.44;;;15.64;80.79
57232;BME280;43488;46.934;8.276;2023-06-04T00:32:21;96364.34;;;15.67;80.18
57232;BME280;43488;46.934;8.276;2023-06-04T00:34:53;96370.34;;;15.62;80.18
57232;BME280;43488;46.934;8.276;2023-06-04T00:37:22;96370.16;;;15.64;79.72
57232;BME280;43488;46.934;8.276;2023-06-04T00:39:49;96369.41;;;15.69;79.71
57232;BME280;43488;46.934;8.276;2023-06-04T00:42:17;96377.13;;;15.70;80.12
57232;BME280;43488;46.934;8.276;2023-06-04T00:44:44;96365.84;;;15.63;80.15
57232;BME280;43488;46.934;8.276;2023-06-04T00:47:15;96369.09;;;15.65;80.42
57232;BME280;43488;46.934;8.276;2023-06-04T00:49:43;96369.81;;;15.60;80.19
57232;BME280;43488;46.934;8.276;2023-06-04T00:52:13;96376.00;;;15.66;80.28
57232;BME280;43488;46.934;8.276;2023-06-04T00:54:42;96374.16;;;15.67;79.60
57232;BME280;43488;46.934;8.276;2023-06-04T00:57:10;96377.91;;;15.71;80.17
57232;BME280;43488;46.934;8.276;2023-06-04T00:59:39;96375.31;;;15.42;81.04
57232;BME280;43488;46.934;8.276;2023-06-04T01:02:13;96378.94;;;15.36;81.56
57232;BME280;43488;46.934;8.276;2023-06-04T01:07:31;96378.84;;;15.14;82.36
57232;BME280;43488;46.934;8.276;2023-06-04T01:09:59;96378.97;;;15.07;83.41
57232;BME280;43488;46.934;8.276;2023-06-04T01:12:28;96377.06;;;15.03;83.43
57232;BME280;43488;46.934;8.276;2023-06-04T01:14:55;96372.06;;;15.06;83.19
57232;BME280;43488;46.934;8.276;2023-06-04T01:17:37;96367.94;;;14.99;82.74
57232;BME280;43488;46.934;8.276;2023-06-04T01:23:40;96371.03;;;15.07;83.12
57232;BME280;43488;46.934;8.276;2023-06-04T01:26:12;96372.16;;;15.12;83.58
57232;BME280;43488;46.934;8.276;2023-06-04T01:28:40;96376.19;;;15.14;83.04
57232;BME280;43488;46.934;8.276;2023-06-04T01:31:09;96372.41;;;15.10;83.29
57232;BME280;43488;46.934;8.276;2023-06-04T01:33:39;96377.63;;;15.05;83.20
57232;BME280;43488;46.934;8.276;2023-06-04T01:36:07;96381.41;;;15.09;83.04
57232;BME280;43488;46.934;8.276;2023-06-04T01:38:39;96377.94;;;15.08;82.26
57232;BME280;43488;46.934;8.276;2023-06-04T01:41:07;96380.09;;;14.95;82.71
57232;BME280;43488;46.934;8.276;2023-06-04T01:43:35;96373.25;;;14.82;83.60
57232;BME280;43488;46.934;8.276;2023-06-04T01:46:03;96388.09;;;14.83;83.57
57232;BME280;43488;46.934;8.276;2023-06-04T01:48:32;96388.91;;;14.84;83.91
57232;BME280;43488;46.934;8.276;2023-06-04T01:51:00;96397.72;;;14.89;83.88
57232;BME280;43488;46.934;8.276;2023-06-04T01:53:30;96394.88;;;14.91;83.60
57232;BME280;43488;46.934;8.276;2023-06-04T01:55:58;96397.53;;;14.91;83.33
57232;BME280;43488;46.934;8.276;2023-06-04T01:58:26;96392.78;;;14.93;82.91
57232;BME280;43488;46.934;8.276;2023-06-04T02:00:54;96398.06;;;14.93;83.02
57232;BME280;43488;46.934;8.276;2023-06-04T02:03:23;96399.06;;;14.75;83.84
57232;BME280;43488;46.934;8.276;2023-06-04T02:05:50;96407.47;;;14.72;84.21
57232;BME280;43488;46.934;8.276;2023-06-04T02:08:18;96401.28;;;14.66;84.41
57232;BME280;43488;46.934;8.276;2023-06-04T02:10:49;96407.53;;;14.48;84.90
57232;BME280;43488;46.934;8.276;2023-06-04T02:13:16;96410.88;;;14.32;85.60
57232;BME280;43488;46.934;8.276;2023-06-04T02:15:43;96405.69;;;14.26;86.42
57232;BME280;43488;46.934;8.276;2023-06-04T02:20:46;96400.84;;;14.34;85.96
57232;BME280;43488;46.934;8.276;2023-06-04T02:23:15;96407.22;;;14.45;85.39
57232;BME280;43488;46.934;8.276;2023-06-04T02:25:44;96410.19;;;14.48;84.53
57232;BME280;43488;46.934;8.276;2023-06-04T02:28:14;96403.63;;;14.51;84.28
57232;BME280;43488;46.934;8.276;2023-06-04T02:30:44;96404.19;;;14.53;84.53
57232;BME280;43488;46.934;8.276;2023-06-04T02:33:12;96400.63;;;14.47;85.19
57232;BME280;43488;46.934;8.276;2023-06-04T02:35:39;96404.09;;;14.48;85.59
57232;BME280;43488;46.934;8.276;2023-06-04T02:38:07;96406.59;;;14.43;85.70
57232;BME280;43488;46.934;8.276;2023-06-04T02:40:34;96401.44;;;14.36;86.58
57232;BME280;43488;46.934;8.276;2023-06-04T02:43:02;96400.25;;;14.44;86.40
57232;BME280;43488;46.934;8.276;2023-06-04T02:45:29;96407.06;;;14.40;86.33
57232;BME280;43488;46.934;8.276;2023-06-04T02:47:57;96409.63;;;14.23;87.47
57232;BME280;43488;46.934;8.276;2023-06-04T02:50:24;96414.47;;;14.14;88.51
57232;BME280;43488;46.934;8.276;2023-06-04T02:52:52;96420.78;;;14.25;88.02
57232;BME280;43488;46.934;8.276;2023-06-04T02:55:19;96426.22;;;14.18;87.51
57232;BME280;43488;46.934;8.276;2023-06-04T02:57:47;96412.84;;;14.25;86.68
57232;BME280;43488;46.934;8.276;2023-06-04T03:00:15;96407.91;;;14.29;85.32
57232;BME280;43488;46.934;8.276;2023-06-04T03:02:46;96417.69;;;14.28;85.29
57232;BME280;43488;46.934;8.276;2023-06-04T03:05:16;96408.22;;;14.32;85.18
57232;BME280;43488;46.934;8.276;2023-06-04T03:07:45;96415.50;;;14.37;85.12
57232;BME280;43488;46.934;8.276;2023-06-04T03:10:14;96411.69;;;14.33;85.07
57232;BME280;43488;46.934;8.276;2023-06-04T03:12:43;96423.44;;;14.25;85.70
57232;BME280;43488;46.934;8.276;2023-06-04T03:15:11;96418.38;;;14.23;85.51
57232;BME280;43488;46.934;8.276;2023-06-04T03:17:38;96425.88;;;14.27;85.00
57232;BME280;43488;46.934;8.276;2023-06-04T03:20:06;96421.72;;;14.31;85.13
57232;BME280;43488;46.934;8.276;2023-06-04T03:22:35;96426.22;;;14.18;85.53
57232;BME280;43488;46.934;8.276;2023-06-04T03:25:04;96435.09;;;14.12;86.49
57232;BME280;43488;46.934;8.276;2023-06-04T03:27:33;96438.88;;;14.16;86.68
57232;BME280;43488;46.934;8.276;2023-06-04T03:30:00;96428.06;;;14.18;86.21
57232;BME280;43488;46.934;8.276;2023-06-04T03:32:28;96443.94;;;14.18;86.27
57232;BME280;43488;46.934;8.276;2023-06-04T03:34:55;96442.69;;;14.09;86.62
57232;BME280;43488;46.934;8.276;2023-06-04T03:37:23;96441.50;;;14.16;86.55
57232;BME280;43488;46.934;8.276;2023-06-04T03:39:50;96442.19;;;14.23;85.88
57232;BME280;43488;46.934;8.276;2023-06-04T03:42:17;96452.78;;;14.23;86.13
57232;BME280;43488;46.934;8.276;2023-06-04T03:44:45;96455.00;;;14.27;86.12
57232;BME280;43488;46.934;8.276;2023-06-04T03:47:13;96452.00;;;14.11;86.24
57232;BME280;43488;46.934;8.276;2023-06-04T03:49:40;96457.41;;;14.05;86.38
57232;BME280;43488;46.934;8.276;2023-06-04T03:52:08;96456.59;;;13.92;87.05
57232;BME280;43488;46.934;8.276;2023-06-04T03:54:35;96462.00;;;13.86;87.36
57232;BME280;43488;46.934;8.276;2023-06-04T03:57:03;96447.97;;;13.85;88.05
57232;BME280;43488;46.934;8.276;2023-06-04T03:59:30;96454.19;;;13.91;87.72
57232;BME280;43488;46.934;8.276;2023-06-04T04:01:57;96454.84;;;13.98;87.68
57232;BME280;43488;46.934;8.276;2023-06-04T04:04:24;96462.13;;;14.03;87.21
57232;BME280;43488;46.934;8.276;2023-06-04T04:06:52;96457.53;;;14.10;87.53
57232;BME280;43488;46.934;8.276;2023-06-04T04:09:20;96464.91;;;14.19;87.66
57232;BME280;43488;46.934;8.276;2023-06-04T04:11:48;96457.41;;;14.28;87.28
57232;BME280;43488;46.934;8.276;2023-06-04T04:14:15;96462.22;;;14.31;87.36
57232;BME280;43488;46.934;8.276;2023-06-04T04:16:43;96464.41;;;14.34;87.29
57232;BME280;43488;46.934;8.276;2023-06-04T04:19:11;96465.34;;;14.40;87.63
57232;BME280;43488;46.934;8.276;2023-06-04T04:21:38;96467.91;;;14.46;87.24
57232;BME280;43488;46.934;8.276;2023-06-04T04:24:06;96458.53;;;14.44;87.58
57232;BME280;43488;46.934;8.276;2023-06-04T04:26:34;96463.66;;;14.45;87.88
57232;BME280;43488;46.934;8.276;2023-06-04T04:29:01;96463.25;;;14.42;87.93
57232;BME280;43488;46.934;8.276;2023-06-04T04:31:29;96467.50;;;14.43;88.51
57232;BME280;43488;46.934;8.276;2023-06-04T04:33:57;96464.44;;;14.46;88.26
57232;BME280;43488;46.934;8.276;2023-06-04T04:36:24;96469.13;;;14.44;88.23
57232;BME280;43488;46.934;8.276;2023-06-04T04:38:52;96464.06;;;14.42;88.26
57232;BME280;43488;46.934;8.276;2023-06-04T04:41:21;96468.94;;;14.45;88.24
57232;BME280;43488;46.934;8.276;2023-06-04T04:43:53;96471.34;;;14.47;88.65
57232;BME280;43488;46.934;8.276;2023-06-04T04:46:21;96475.94;;;14.51;87.80
57232;BME280;43488;46.934;8.276;2023-06-04T04:48:48;96478.34;;;14.53;87.08
57232;BME280;43488;46.934;8.276;2023-06-04T04:51:15;96483.28;;;14.61;87.40
57232;BME280;43488;46.934;8.276;2023-06-04T04:53:43;96491.00;;;14.63;87.11
57232;BME280;43488;46.934;8.276;2023-06-04T04:56:10;96488.25;;;14.69;86.87
57232;BME280;43488;46.934;8.276;2023-06-04T04:58:38;96477.41;;;14.71;87.25
57232;BME280;43488;46.934;8.276;2023-06-04T05:01:06;96477.53;;;14.76;86.92
57232;BME280;43488;46.934;8.276;2023-06-04T05:03:33;96480.84;;;14.71;87.83
57232;BME280;43488;46.934;8.276;2023-06-04T05:06:00;96474.41;;;14.67;88.32
57232;BME280;43488;46.934;8.276;2023-06-04T05:08:27;96475.69;;;14.65;89.61
57232;BME280;43488;46.934;8.276;2023-06-04T05:10:55;96475.00;;;14.69;89.30
57232;BME280;43488;46.934;8.276;2023-06-04T05:13:22;96478.09;;;14.78;89.02
57232;BME280;43488;46.934;8.276;2023-06-04T05:15:50;96474.81;;;14.88;89.20
57232;BME280;43488;46.934;8.276;2023-06-04T05:18:20;96479.19;;;14.94;89.18
57232;BME280;43488;46.934;8.276;2023-06-04T05:20:56;96472.50;;;15.03;89.24
57232;BME280;43488;46.934;8.276;2023-06-04T05:23:26;96479.03;;;15.12;88.37
57232;BME280;43488;46.934;8.276;2023-06-04T05:25:53;96474.53;;;15.13;88.66
57232;BME280;43488;46.934;8.276;2023-06-04T05:28:24;96470.22;;;15.23;88.52
57232;BME280;43488;46.934;8.276;2023-06-04T05:30:52;96480.81;;;15.23;89.61
57232;BME280;43488;46.934;8.276;2023-06-04T05:33:27;96492.78;;;15.26;90.47
57232;BME280;43488;46.934;8.276;2023-06-04T05:35:54;96495.06;;;15.34;89.66
57232;BME280;43488;46.934;8.276;2023-06-04T05:38:24;96492.59;;;15.44;88.89
57232;BME280;43488;46.934;8.276;2023-06-04T05:40:58;96488.69;;;15.47;89.31
57232;BME280;43488;46.934;8.276;2023-06-04T05:43:26;96489.63;;;15.41;90.56
57232;BME280;43488;46.934;8.276;2023-06-04T05:45:53;96483.38;;;15.47;90.73
57232;BME280;43488;46.934;8.276;2023-06-04T05:48:21;96479.19;;;15.51;89.33
57232;BME280;43488;46.934;8.276;2023-06-04T05:50:48;96490.59;;;15.51;88.43
57232;BME280;43488;46.934;8.276;2023-06-04T05:53:16;96487.72;;;15.53;87.50
57232;BME280;43488;46.934;8.276;2023-06-04T05:55:43;96483.06;;;15.60;86.72
57232;BME280;43488;46.934;8.276;2023-06-04T05:58:10;96477.44;;;15.56;86.75
57232;BME280;43488;46.934;8.276;2023-06-04T06:00:37;96480.78;;;15.63;86.29
57232;BME280;43488;46.934;8.276;2023-06-04T06:03:05;96484.88;;;15.71;85.50
57232;BME280;43488;46.934;8.276;2023-06-04T06:05:32;96485.63;;;15.83;84.79
57232;BME280;43488;46.934;8.276;2023-06-04T06:08:00;96486.84;;;15.92;85.52
57232;BME280;43488;46.934;8.276;2023-06-04T06:10:27;96485.38;;;16.02;86.33
57232;BME280;43488;46.934;8.276;2023-06-04T06:12:54;96483.13;;;16.10;87.06
57232;BME280;43488;46.934;8.276;2023-06-04T06:15:21;96486.00;;;16.26;87.20
57232;BME280;43488;46.934;8.276;2023-06-04T06:17:49;96485.28;;;16.30;85.20
57232;BME280;43488;46.934;8.276;2023-06-04T06:20:18;96481.16;;;16.39;83.91
57232;BME280;43488;46.934;8.276;2023-06-04T06:22:46;96490.31;;;16.48;83.46
57232;BME280;43488;46.934;8.276;2023-06-04T06:25:13;96491.00;;;16.61;82.79
57232;BME280;43488;46.934;8.276;2023-06-04T06:27:43;96491.41;;;16.69;81.58
57232;BME280;43488;46.934;8.276;2023-06-04T06:30:11;96492.44;;;16.85;81.16
57232;BME280;43488;46.934;8.276;2023-06-04T06:32:40;96481.16;;;17.00;80.02
57232;BME280;43488;46.934;8.276;2023-06-04T06:35:08;96489.50;;;17.09;79.19
57232;BME280;43488;46.934;8.276;2023-06-04T06:37:36;96485.31;;;17.13;81.01
57232;BME280;43488;46.934;8.276;2023-06-04T06:40:09;96494.94;;;17.19;82.28
57232;BME280;43488;46.934;8.276;2023-06-04T06:42:38;96487.56;;;17.26;81.08
57232;BME280;43488;46.934;8.276;2023-06-04T06:45:06;96491.66;;;17.33;78.79
57232;BME280;43488;46.934;8.276;2023-06-04T06:47:34;96488.00;;;17.40;75.81
57232;BME280;43488;46.934;8.276;2023-06-04T06:50:02;96494.75;;;17.52;75.33
57232;BME280;43488;46.934;8.276;2023-06-04T06:52:29;96488.94;;;17.55;75.37
57232;BME280;43488;46.934;8.276;2023-06-04T06:54:57;96491.72;;;17.66;73.36
57232;BME280;43488;46.934;8.276;2023-06-04T06:57:24;96491.03;;;17.75;73.80
57232;BME280;43488;46.934;8.276;2023-06-04T06:59:52;96493.44;;;17.77;70.10
57232;BME280;43488;46.934;8.276;2023-06-04T07:02:21;96491.66;;;17.87;69.29
57232;BME280;43488;46.934;8.276;2023-06-04T07:04:48;96486.47;;;18.03;69.31
57232;BME280;43488;46.934;8.276;2023-06-04T07:07:15;96498.25;;;18.12;69.00
57232;BME280;43488;46.934;8.276;2023-06-04T07:09:44;96495.63;;;18.17;69.00
57232;BME280;43488;46.934;8.276;2023-06-04T07:12:12;96490.63;;;18.26;68.64
57232;BME280;43488;46.934;8.276;2023-06-04T07:14:39;96489.88;;;18.35;68.95
57232;BME280;43488;46.934;8.276;2023-06-04T07:17:07;96492.06;;;18.38;68.80
57232;BME280;43488;46.934;8.276;2023-06-04T07:19:34;96489.16;;;18.45;68.35
57232;BME280;43488;46.934;8.276;2023-06-04T07:22:03;96488.91;;;18.52;68.51
57232;BME280;43488;46.934;8.276;2023-06-04T07:24:31;96481.78;;;18.62;70.10
57232;BME280;43488;46.934;8.276;2023-06-04T07:26:58;96486.13;;;18.68;70.92
57232;BME280;43488;46.934;8.276;2023-06-04T07:29:27;96480.56;;;18.80;70.79
57232;BME280;43488;46.934;8.276;2023-06-04T07:31:55;96488.28;;;18.77;70.28
57232;BME280;43488;46.934;8.276;2023-06-04T07:34:22;96484.25;;;18.69;71.05
57232;BME280;43488;46.934;8.276;2023-06-04T07:36:49;96485.31;;;18.68;71.29
57232;BME280;43488;46.934;8.276;2023-06-04T07:39:17;96487.78;;;18.80;70.83
57232;BME280;43488;46.934;8.276;2023-06-04T07:41:45;96485.63;;;18.82;71.81
57232;BME280;43488;46.934;8.276;2023-06-04T07:44:12;96484.59;;;18.88;70.90
57232;BME280;43488;46.934;8.276;2023-06-04T07:46:41;96485.44;;;18.98;71.66
57232;BME280;43488;46.934;8.276;2023-06-04T07:49:09;96485.75;;;19.07;72.55
57232;BME280;43488;46.934;8.276;2023-06-04T07:51:36;96477.50;;;19.14;74.10
57232;BME280;43488;46.934;8.276;2023-06-04T07:54:04;96482.63;;;19.30;71.87
57232;BME280;43488;46.934;8.276;2023-06-04T07:56:32;96482.38;;;19.32;74.02
57232;BME280;43488;46.934;8.276;2023-06-04T07:59:00;96473.88;;;19.50;70.02
57232;BME280;43488;46.934;8.276;2023-06-04T08:01:27;96476.84;;;19.59;72.11
57232;BME280;43488;46.934;8.276;2023-06-04T08:03:56;96480.06;;;19.76;71.38
57232;BME280;43488;46.934;8.276;2023-06-04T08:06:23;96479.53;;;19.69;72.04
57232;BME280;43488;46.934;8.276;2023-06-04T08:08:51;96476.31;;;19.72;70.59
57232;BME280;43488;46.934;8.276;2023-06-04T08:11:19;96475.53;;;19.77;71.96
57232;BME280;43488;46.934;8.276;2023-06-04T08:13:48;96467.53;;;19.77;69.93
57232;BME280;43488;46.934;8.276;2023-06-04T08:16:15;96472.06;;;19.92;69.64
57232;BME280;43488;46.934;8.276;2023-06-04T08:18:42;96467.25;;;20.09;71.96
57232;BME280;43488;46.934;8.276;2023-06-04T08:21:10;96475.53;;;20.07;70.35
57232;BME280;43488;46.934;8.276;2023-06-04T08:23:38;96458.69;;;20.17;72.30
57232;BME280;43488;46.934;8.276;2023-06-04T08:26:07;96470.72;;;20.14;72.97
57232;BME280;43488;46.934;8.276;2023-06-04T08:28:34;96469.34;;;20.27;71.02
57232;BME280;43488;46.934;8.276;2023-06-04T08:31:02;96471.22;;;20.42;71.51
57232;BME280;43488;46.934;8.276;2023-06-04T08:33:29;96466.16;;;20.40;70.92
57232;BME280;43488;46.934;8.276;2023-06-04T08:35:58;96474.69;;;20.48;71.78
57232;BME280;43488;46.934;8.276;2023-06-04T08:38:25;96469.63;;;20.46;71.79
57232;BME280;43488;46.934;8.276;2023-06-04T08:40:53;96463.75;;;20.49;70.96
57232;BME280;43488;46.934;8.276;2023-06-04T08:43:24;96467.47;;;20.53;71.58
57232;BME280;43488;46.934;8.276;2023-06-04T08:45:59;96444.66;;;21.80;70.63
57232;BME280;43488;46.934;8.276;2023-06-04T08:48:29;96465.25;;;20.81;68.36
57232;BME280;43488;46.934;8.276;2023-06-04T08:50:57;96457.22;;;20.76;69.09
57232;BME280;43488;46.934;8.276;2023-06-04T08:53:29;96456.72;;;20.79;71.25
57232;BME280;43488;46.934;8.276;2023-06-04T08:55:57;96452.66;;;20.86;70.21
57232;BME280;43488;46.934;8.276;2023-06-04T08:58:27;96445.97;;;20.89;69.31
57232;BME280;43488;46.934;8.276;2023-06-04T09:00:58;96449.66;;;21.03;69.55
57232;BME280;43488;46.934;8.276;2023-06-04T09:03:26;96449.66;;;21.03;69.80
57232;BME280;43488;46.934;8.276;2023-06-04T09:05:55;96446.94;;;21.08;70.48
57232;BME280;43488;46.934;8.276;2023-06-04T09:08:24;96450.63;;;21.17;69.68
57232;BME280;43488;46.934;8.276;2023-06-04T09:10:56;96446.88;;;21.23;71.33
57232;BME280;43488;46.934;8.276;2023-06-04T09:13:31;96446.09;;;21.18;69.27
57232;BME280;43488;46.934;8.276;2023-06-04T09:16:01;96442.31;;;21.24;70.22
57232;BME280;43488;46.934;8.276;2023-06-04T09:18:30;96438.50;;;21.40;69.51
57232;BME280;43488;46.934;8.276;2023-06-04T09:21:16;96433.97;;;21.36;69.08
57232;BME280;43488;46.934;8.276;2023-06-04T09:26:10;96435.22;;;21.48;67.94
57232;BME280;43488;46.934;8.276;2023-06-04T09:28:44;96430.63;;;21.54;67.50
57232;BME280;43488;46.934;8.276;2023-06-04T09:31:16;96436.72;;;21.65;68.45
57232;BME280;43488;46.934;8.276;2023-06-04T09:33:49;96435.88;;;21.69;70.19
57232;BME280;43488;46.934;8.276;2023-06-04T09:36:17;96438.78;;;21.78;69.05
57232;BME280;43488;46.934;8.276;2023-06-04T09:38:45;96438.69;;;21.88;66.72
57232;BME280;43488;46.934;8.276;2023-06-04T09:41:17;96438.81;;;22.02;67.90
57232;BME280;43488;46.934;8.276;2023-06-04T09:43:47;96438.81;;;22.07;65.72
57232;BME280;43488;46.934;8.276;2023-06-04T09:46:17;96427.31;;;22.01;64.88
57232;BME280;43488;46.934;8.276;2023-06-04T09:48:45;96424.41;;;21.98;66.58
57232;BME280;43488;46.934;8.276;2023-06-04T09:51:15;96419.56;;;22.00;64.87
57232;BME280;43488;46.934;8.276;2023-06-04T09:53:58;96425.59;;;22.16;64.63
57232;BME280;43488;46.934;8.276;2023-06-04T09:56:26;96416.19;;;22.18;64.00
57232;BME280;43488;46.934;8.276;2023-06-04T09:58:58;96412.91;;;22.26;65.01
57232;BME280;43488;46.934;8.276;2023-06-04T10:01:30;96417.06;;;22.37;65.03
57232;BME280;43488;46.934;8.276;2023-06-04T10:04:04;96411.28;;;22.49;63.55
57232;BME280;43488;46.934;8.276;2023-06-04T10:06:36;96420.38;;;22.53;61.79
57232;BME280;43488;46.934;8.276;2023-06-04T10:09:06;96416.16;;;22.47;62.10
57232;BME280;43488;46.934;8.276;2023-06-04T10:11:40;96411.03;;;22.51;61.32
57232;BME280;43488;46.934;8.276;2023-06-04T10:14:25;96413.47;;;22.71;63.44
57232;BME280;43488;46.934;8.276;2023-06-04T10:16:57;96405.44;;;22.71;63.93
57232;BME280;43488;46.934;8.276;2023-06-04T10:19:27;96407.25;;;22.76;61.78
57232;BME280;43488;46.934;8.276;2023-06-04T10:21:55;96400.13;;;22.66;62.84
57232;BME280;43488;46.934;8.276;2023-06-04T10:24:23;96406.72;;;22.74;61.04
57232;BME280;43488;46.934;8.276;2023-06-04T10:26:54;96399.19;;;22.76;61.21
57232;BME280;43488;46.934;8.276;2023-06-04T10:29:25;96403.41;;;22.87;61.58
57232;BME280;43488;46.934;8.276;2023-06-04T10:31:56;96393.81;;;22.99;60.13
57232;BME280;43488;46.934;8.276;2023-06-04T10:34:23;96399.94;;;23.05;58.80
57232;BME280;43488;46.934;8.276;2023-06-04T10:36:53;96390.25;;;23.04;58.72
57232;BME280;43488;46.934;8.276;2023-06-04T10:39:31;96406.44;;;22.99;58.04
57232;BME280;43488;46.934;8.276;2023-06-04T10:42:04;96404.06;;;23.16;58.76
57232;BME280;43488;46.934;8.276;2023-06-04T10:44:50;96390.56;;;23.21;59.29
57232;BME280;43488;46.934;8.276;2023-06-04T10:47:26;96396.97;;;23.25;58.70
57232;BME280;43488;46.934;8.276;2023-06-04T10:49:54;96397.00;;;23.39;56.62
57232;BME280;43488;46.934;8.276;2023-06-04T10:52:23;96390.53;;;23.40;58.04
57232;BME280;43488;46.934;8.276;2023-06-04T10:54:50;96388.09;;;23.44;54.15
57232;BME280;43488;46.934;8.276;2023-06-04T10:57:20;96388.09;;;23.44;55.27
57232;BME280;43488;46.934;8.276;2023-06-04T10:59:58;96382.72;;;23.63;57.13
57232;BME280;43488;46.934;8.276;2023-06-04T11:02:26;96384.94;;;23.74;56.46
57232;BME280;43488;46.934;8.276;2023-06-04T11:05:07;96383.19;;;23.83;57.22
57232;BME280;43488;46.934;8.276;2023-06-04T11:07:44;96373.66;;;23.91;56.78
57232;BME280;43488;46.934;8.276;2023-06-04T11:10:14;96385.38;;;23.95;55.22
57232;BME280;43488;46.934;8.276;2023-06-04T11:12:49;96379.41;;;23.84;56.37
57232;BME280;43488;46.934;8.276;2023-06-04T11:15:19;96385.50;;;24.04;57.00
57232;BME280;43488;46.934;8.276;2023-06-04T11:17:55;96376.97;;;24.16;54.97
57232;BME280;43488;46.934;8.276;2023-06-04T11:20:25;96373.63;;;24.37;55.55
57232;BME280;43488;46.934;8.276;2023-06-04T11:22:55;96374.84;;;24.45;54.28
57232;BME280;43488;46.934;8.276;2023-06-04T11:25:26;96371.06;;;24.32;53.99
57232;BME280;43488;46.934;8.276;2023-06-04T11:27:56;96373.22;;;24.58;56.42
57232;BME280;43488;46.934;8.276;2023-06-04T11:30:24;96372.03;;;24.64;54.38
57232;BME280;43488;46.934;8.276;2023-06-04T11:33:04;96371.44;;;24.81;54.47
57232;BME280;43488;46.934;8.276;2023-06-04T11:35:40;96365.16;;;24.72;55.65
57232;BME280;43488;46.934;8.276;2023-06-04T11:38:09;96358.63;;;24.86;55.00
57232;BME280;43488;46.934;8.276;2023-06-04T11:40:37;96353.56;;;24.85;54.91
57232;BME280;43488;46.934;8.276;2023-06-04T11:43:05;96352.19;;;24.87;52.57
57232;BME280;43488;46.934;8.276;2023-06-04T11:45:33;96361.84;;;25.02;53.77
57232;BME280;43488;46.934;8.276;2023-06-04T11:48:02;96361.53;;;25.04;54.01
57232;BME280;43488;46.934;8.276;2023-06-04T11:50:31;96358.59;;;25.14;53.69
57232;BME280;43488;46.934;8.276;2023-06-04T11:52:59;96357.81;;;25.13;53.05
57232;BME280;43488;46.934;8.276;2023-06-04T11:55:27;96357.72;;;25.18;51.95
57232;BME280;43488;46.934;8.276;2023-06-04T11:57:54;96356.06;;;25.31;52.37
57232;BME280;43488;46.934;8.276;2023-06-04T12:00:22;96362.25;;;25.32;52.41
57232;BME280;43488;46.934;8.276;2023-06-04T12:02:51;96351.50;;;25.54;52.22
57232;BME280;43488;46.934;8.276;2023-06-04T12:05:22;96351.25;;;25.64;52.52
57232;BME280;43488;46.934;8.276;2023-06-04T12:07:51;96349.69;;;25.49;51.19
57232;BME280;43488;46.934;8.276;2023-06-04T12:10:22;96349.56;;;25.32;50.97
57232;BME280;43488;46.934;8.276;2023-06-04T12:12:54;96347.00;;;25.27;50.28
57232;BME280;43488;46.934;8.276;2023-06-04T12:15:22;96343.69;;;25.30;52.64
57232;BME280;43488;46.934;8.276;2023-06-04T12:17:52;96352.06;;;25.06;52.31
57232;BME280;43488;46.934;8.276;2023-06-04T12:20:35;96347.28;;;24.89;51.65
57232;BME280;43488;46.934;8.276;2023-06-04T12:23:05;96343.53;;;24.63;52.96
57232;BME280;43488;46.934;8.276;2023-06-04T12:25:35;96353.91;;;24.56;54.68
57232;BME280;43488;46.934;8.276;2023-06-04T12:28:04;96345.22;;;24.59;54.65
57232;BME280;43488;46.934;8.276;2023-06-04T12:30:40;96349.34;;;24.43;54.13
57232;BME280;43488;46.934;8.276;2023-06-04T12:33:11;96343.72;;;24.25;55.87
57232;BME280;43488;46.934;8.276;2023-06-04T12:35:39;96345.00;;;24.28;54.32
57232;BME280;43488;46.934;8.276;2023-06-04T12:38:06;96341.03;;;24.25;54.52
57232;BME280;43488;46.934;8.276;2023-06-04T12:40:36;96340.63;;;24.18;56.54
57232;BME280;43488;46.934;8.276;2023-06-04T12:43:05;96334.53;;;24.12;55.72
57232;BME280;43488;46.934;8.276;2023-06-04T12:45:33;96336.31;;;24.03;56.36
57232;BME280;43488;46.934;8.276;2023-06-04T12:48:00;96346.97;;;23.95;56.33
57232;BME280;43488;46.934;8.276;2023-06-04T12:50:28;96340.50;;;23.96;56.05
57232;BME280;43488;46.934;8.276;2023-06-04T12:52:56;96338.09;;;23.94;57.43
57232;BME280;43488;46.934;8.276;2023-06-04T12:55:23;96330.63;;;23.91;56.37
57232;BME280;43488;46.934;8.276;2023-06-04T12:57:50;96333.31;;;23.77;55.24
57232;BME280;43488;46.934;8.276;2023-06-04T13:00:18;96330.72;;;23.86;56.63
57232;BME280;43488;46.934;8.276;2023-06-04T13:02:45;96327.22;;;23.86;56.27
57232;BME280;43488;46.934;8.276;2023-06-04T13:05:13;96328.75;;;23.92;56.24
57232;BME280;43488;46.934;8.276;2023-06-04T13:07:40;96330.16;;;24.03;55.64
57232;BME280;43488;46.934;8.276;2023-06-04T13:10:08;96322.97;;;24.12;53.99
57232;BME280;43488;46.934;8.276;2023-06-04T13:12:36;96327.19;;;24.18;54.54
57232;BME280;43488;46.934;8.276;2023-06-04T13:15:04;96323.19;;;24.29;54.98
57232;BME280;43488;46.934;8.276;2023-06-04T13:17:32;96328.78;;;24.47;55.04
57232;BME280;43488;46.934;8.276;2023-06-04T13:20:00;96328.47;;;24.76;54.35